createdAt,value
2018-10-06T00:01:21.969Z,99.90
2018-10-06T00:03:49.697Z,99.90
2018-10-06T00:06:17.383Z,99.90
2018-10-06T00:08:45.058Z,99.90
2018-10-06T00:11:12.912Z,99.90
2018-10-06T00:13:40.605Z,99.90
2018-10-06T00:16:08.369Z,99.90
2018-10-06T00:18:36.039Z,99.90
2018-10-06T00:21:03.729Z,99.90
2018-10-06T00:23:31.417Z,99.90
2018-10-06T00:25:59.142Z,99.90
2018-10-06T00:28:26.798Z,99.90
2018-10-06T00:30:54.497Z,99.90
2018-10-06T00:33:22.211Z,99.90
2018-10-06T00:35:49.887Z,99.90
2018-10-06T00:38:17.549Z,99.90
2018-10-06T00:40:45.226Z,99.90
2018-10-06T00:43:12.903Z,99.90
2018-10-06T00:45:40.590Z,99.90
2018-10-06T00:48:08.326Z,99.90
2018-10-06T00:50:36.015Z,99.90
2018-10-06T00:53:03.703Z,99.90
2018-10-06T00:55:31.394Z,99.90
2018-10-06T00:57:59.078Z,99.90
2018-10-06T01:00:26.773Z,99.90
2018-10-06T01:02:54.461Z,99.90
2018-10-06T01:05:22.193Z,99.90
2018-10-06T01:07:49.902Z,99.90
2018-10-06T01:10:17.575Z,99.90
2018-10-06T01:12:45.257Z,99.90
2018-10-06T01:15:12.925Z,99.90
2018-10-06T01:17:40.617Z,99.90
2018-10-06T01:20:08.290Z,99.90
2018-10-06T01:22:35.973Z,99.90
2018-10-06T01:25:03.673Z,99.90
2018-10-06T01:27:31.380Z,99.90
2018-10-06T01:29:59.070Z,99.90
2018-10-06T01:32:26.773Z,99.90
2018-10-06T01:34:54.451Z,99.90
2018-10-06T01:37:22.129Z,99.90
2018-10-06T01:39:49.871Z,99.90
2018-10-06T01:42:17.568Z,99.90
2018-10-06T01:44:45.266Z,99.90
2018-10-06T01:47:12.950Z,99.90
2018-10-06T01:49:40.662Z,99.90
2018-10-06T01:52:08.357Z,99.90
2018-10-06T01:54:36.035Z,99.90
2018-10-06T01:57:03.713Z,99.90
2018-10-06T01:59:31.423Z,99.90
2018-10-06T02:01:59.102Z,99.90
2018-10-06T02:04:26.774Z,99.90
2018-10-06T02:06:55.237Z,99.90
2018-10-06T02:09:22.982Z,99.90
2018-10-06T02:11:50.936Z,99.90
2018-10-06T02:14:18.614Z,99.90
2018-10-06T02:16:46.321Z,99.90
2018-10-06T02:19:14.013Z,99.90
2018-10-06T02:21:41.734Z,99.90
2018-10-06T02:24:09.424Z,99.90
2018-10-06T02:26:37.099Z,99.90
2018-10-06T02:29:04.817Z,99.90
2018-10-06T02:31:32.502Z,99.90
2018-10-06T02:34:00.446Z,99.90
2018-10-06T02:36:28.276Z,99.90
2018-10-06T02:38:56.001Z,99.90
2018-10-06T02:41:23.736Z,99.90
2018-10-06T02:43:51.413Z,99.90
2018-10-06T02:46:19.102Z,99.90
2018-10-06T02:48:46.810Z,99.90
2018-10-06T02:51:14.565Z,99.90
2018-10-06T02:53:42.234Z,99.90
2018-10-06T02:56:09.914Z,99.90
2018-10-06T02:58:37.598Z,99.90
2018-10-06T03:01:05.282Z,99.90
2018-10-06T03:03:32.991Z,99.90
2018-10-06T03:06:00.673Z,99.90
2018-10-06T03:08:28.389Z,99.90
2018-10-06T03:10:56.099Z,99.90
2018-10-06T03:13:23.842Z,99.90
2018-10-06T03:15:51.575Z,99.90
2018-10-06T03:18:19.255Z,99.90
2018-10-06T03:20:46.943Z,99.90
2018-10-06T03:23:14.625Z,99.90
2018-10-06T03:25:42.353Z,99.90
2018-10-06T03:28:10.070Z,99.90
2018-10-06T03:30:37.742Z,99.90
2018-10-06T03:33:05.464Z,99.90
2018-10-06T03:35:33.183Z,99.90
2018-10-06T03:38:00.909Z,99.90
2018-10-06T03:40:28.650Z,99.90
2018-10-06T03:42:56.350Z,99.90
2018-10-06T03:45:24.050Z,99.90
2018-10-06T03:47:52.014Z,99.90
2018-10-06T03:50:19.681Z,99.90
2018-10-06T03:52:47.353Z,99.90
2018-10-06T03:55:15.062Z,99.90
2018-10-06T03:57:42.738Z,99.90
2018-10-06T04:00:10.483Z,99.90
2018-10-06T04:02:38.155Z,99.90
2018-10-06T04:05:05.916Z,99.90
2018-10-06T04:07:33.614Z,99.90
2018-10-06T04:10:01.310Z,99.90
2018-10-06T04:12:28.977Z,99.90
2018-10-06T04:14:56.666Z,99.90
2018-10-06T04:17:24.418Z,99.90
2018-10-06T04:19:52.142Z,99.90
2018-10-06T04:22:19.825Z,99.90
2018-10-06T04:24:47.515Z,99.90
2018-10-06T04:27:15.183Z,99.90
2018-10-06T04:29:42.881Z,99.90
2018-10-06T04:32:10.575Z,99.90
2018-10-06T04:34:38.250Z,99.90
2018-10-06T04:37:05.978Z,99.90
2018-10-06T04:39:33.679Z,99.90
2018-10-06T04:42:01.362Z,99.90
2018-10-06T04:44:29.110Z,99.90
2018-10-06T04:46:56.802Z,99.90
2018-10-06T04:49:24.532Z,99.90
2018-10-06T04:51:52.239Z,99.90
2018-10-06T04:54:19.944Z,99.90
2018-10-06T04:56:47.630Z,99.90
2018-10-06T04:59:15.894Z,99.90
2018-10-06T05:01:43.826Z,99.90
2018-10-06T05:04:11.508Z,99.90
2018-10-06T05:06:39.218Z,99.90
2018-10-06T05:09:07.101Z,99.90
2018-10-06T05:11:34.861Z,99.90
2018-10-06T05:14:02.559Z,99.90
2018-10-06T05:16:30.315Z,99.90
2018-10-06T05:18:58.006Z,99.90
2018-10-06T05:21:25.740Z,99.90
2018-10-06T05:23:53.507Z,99.90
2018-10-06T05:26:21.193Z,99.90
2018-10-06T05:28:48.910Z,99.90
2018-10-06T05:31:16.643Z,99.90
2018-10-06T05:33:44.320Z,99.90
2018-10-06T05:36:11.989Z,99.90
2018-10-06T05:38:39.707Z,99.90
2018-10-06T05:41:07.416Z,99.90
2018-10-06T05:43:35.123Z,99.90
2018-10-06T05:46:02.802Z,99.90
2018-10-06T05:48:30.515Z,99.90
2018-10-06T05:50:58.206Z,99.90
2018-10-06T05:53:25.935Z,99.90
2018-10-06T05:55:53.654Z,99.90
2018-10-06T05:58:21.352Z,99.90
2018-10-06T06:00:49.053Z,99.90
2018-10-06T06:03:16.774Z,99.90
2018-10-06T06:05:44.492Z,99.90
2018-10-06T06:10:58.053Z,99.90
2018-10-06T06:13:25.744Z,99.90
2018-10-06T06:15:53.468Z,99.90
2018-10-06T06:18:21.192Z,99.90
2018-10-06T06:23:27.706Z,99.90
2018-10-06T06:25:55.416Z,99.90
2018-10-06T06:28:24.374Z,99.90
2018-10-06T06:30:52.078Z,99.90
2018-10-06T06:33:19.942Z,99.90
2018-10-06T06:35:47.649Z,92.70
2018-10-06T06:38:15.359Z,92.40
2018-10-06T06:40:43.069Z,99.90
2018-10-06T06:43:10.916Z,99.90
2018-10-06T06:45:38.661Z,99.90
2018-10-06T06:48:06.357Z,99.90
2018-10-06T06:50:34.058Z,99.90
2018-10-06T06:53:01.789Z,99.90
2018-10-06T06:55:29.575Z,99.90
2018-10-06T06:57:57.286Z,99.90
2018-10-06T07:00:24.998Z,99.90
2018-10-06T07:02:52.706Z,99.90
2018-10-06T07:05:23.043Z,99.90
2018-10-06T07:07:51.166Z,99.90
2018-10-06T07:10:19.023Z,67.70
2018-10-06T07:12:46.759Z,56.00
2018-10-06T07:15:14.720Z,40.30
2018-10-06T07:17:42.436Z,33.60
2018-10-06T07:20:10.129Z,29.30
2018-10-06T07:22:37.843Z,23.90
2018-10-06T07:25:05.625Z,19.40
2018-10-06T07:27:33.315Z,23.40
2018-10-06T07:30:01.007Z,9.90
2018-10-06T07:32:28.723Z,4.10
2018-10-06T07:34:56.423Z,1.00
2018-10-06T07:37:24.116Z,1.00
2018-10-06T07:39:51.883Z,1.00
2018-10-06T07:42:19.783Z,1.00
2018-10-06T07:44:47.519Z,1.00
2018-10-06T07:47:15.178Z,1.00
2018-10-06T07:49:42.882Z,1.00
2018-10-06T07:52:10.554Z,1.00
2018-10-06T07:54:38.234Z,1.00
2018-10-06T07:57:05.906Z,1.00
2018-10-06T07:59:33.615Z,1.00
2018-10-06T08:02:01.506Z,99.90
2018-10-06T08:04:29.218Z,99.90
2018-10-06T08:06:56.973Z,1.00
2018-10-06T08:09:25.130Z,1.00
2018-10-06T08:11:52.839Z,23.00
2018-10-06T08:14:20.537Z,99.90
2018-10-06T08:16:48.206Z,1.00
2018-10-06T08:19:15.891Z,99.90
2018-10-06T08:21:43.598Z,1.00
2018-10-06T08:24:11.421Z,99.90
2018-10-06T08:26:39.084Z,1.00
2018-10-06T08:29:06.803Z,99.90
2018-10-06T08:31:34.488Z,99.90
2018-10-06T08:34:02.182Z,1.00
2018-10-06T08:36:29.917Z,99.90
2018-10-06T08:38:57.663Z,99.90
2018-10-06T08:41:25.354Z,99.90
2018-10-06T08:43:53.042Z,99.90
2018-10-06T08:46:20.730Z,1.00
2018-10-06T08:48:48.391Z,99.90
2018-10-06T08:51:16.123Z,1.00
2018-10-06T08:53:43.844Z,99.90
2018-10-06T08:56:11.648Z,99.90
2018-10-06T08:58:39.232Z,99.90
2018-10-06T09:01:07.000Z,99.90
2018-10-06T09:03:34.713Z,99.90
2018-10-06T09:06:02.409Z,99.90
2018-10-06T09:08:30.128Z,99.90
2018-10-06T09:10:57.852Z,99.90
2018-10-06T09:13:25.484Z,99.90
2018-10-06T09:15:53.253Z,99.90
2018-10-06T09:18:20.968Z,99.90
2018-10-06T09:20:48.666Z,99.90
2018-10-06T09:23:16.362Z,99.90
2018-10-06T09:25:44.073Z,99.90
2018-10-06T09:28:11.778Z,99.90
2018-10-06T09:30:39.475Z,99.90
2018-10-06T09:33:07.172Z,99.90
2018-10-06T09:35:35.072Z,99.90
2018-10-06T09:38:02.732Z,99.90
2018-10-06T09:40:30.437Z,99.90
2018-10-06T09:42:58.319Z,99.90
2018-10-06T09:45:25.895Z,99.90
2018-10-06T09:47:53.589Z,99.90
2018-10-06T09:50:21.253Z,99.90
2018-10-06T09:52:48.963Z,99.90
2018-10-06T09:55:16.651Z,99.90
2018-10-06T09:57:44.422Z,99.90
2018-10-06T10:00:12.111Z,99.90
2018-10-06T10:02:45.294Z,99.90
2018-10-06T10:05:18.492Z,99.90
2018-10-06T10:07:46.165Z,99.90
2018-10-06T10:10:13.852Z,99.90
2018-10-06T10:12:41.613Z,99.90
2018-10-06T10:15:09.246Z,99.90
2018-10-06T10:17:37.137Z,99.90
2018-10-06T10:20:04.653Z,99.90
2018-10-06T10:22:32.424Z,99.90
2018-10-06T10:25:00.096Z,99.90
2018-10-06T10:30:02.094Z,99.90
2018-10-06T10:32:29.762Z,99.90
2018-10-06T10:34:57.449Z,99.90
2018-10-06T10:37:25.247Z,99.90
2018-10-06T10:39:52.963Z,99.90
2018-10-06T10:42:20.636Z,99.90
2018-10-06T10:44:48.367Z,99.90
2018-10-06T10:47:16.054Z,99.90
2018-10-06T10:49:43.795Z,99.90
2018-10-06T10:52:11.486Z,99.90
2018-10-06T10:54:39.205Z,99.90
2018-10-06T10:57:06.906Z,99.90
2018-10-06T10:59:34.618Z,99.90
2018-10-06T11:02:02.283Z,99.90
2018-10-06T11:04:29.964Z,99.90
2018-10-06T11:06:57.639Z,99.90
2018-10-06T11:09:25.310Z,99.90
2018-10-06T11:11:53.014Z,99.90
2018-10-06T11:14:20.726Z,99.90
2018-10-06T11:16:48.478Z,99.90
2018-10-06T11:19:16.233Z,99.90
2018-10-06T11:21:43.893Z,99.90
2018-10-06T11:24:11.573Z,99.90
2018-10-06T11:26:39.249Z,99.90
2018-10-06T11:29:06.918Z,99.90
2018-10-06T11:31:34.630Z,99.90
2018-10-06T11:34:02.331Z,99.90
2018-10-06T11:36:30.015Z,99.90
2018-10-06T11:38:57.724Z,99.90
2018-10-06T11:41:25.518Z,99.90
2018-10-06T11:43:53.296Z,99.90
2018-10-06T11:46:21.003Z,99.90
2018-10-06T11:48:48.750Z,99.90
2018-10-06T11:51:16.442Z,99.90
2018-10-06T11:53:44.157Z,99.90
2018-10-06T11:56:11.839Z,99.90
2018-10-06T11:58:39.556Z,99.90
2018-10-06T12:01:07.247Z,99.90
2018-10-06T12:03:34.968Z,99.90
2018-10-06T12:06:02.670Z,99.90
2018-10-06T12:08:30.362Z,99.90
2018-10-06T12:10:58.030Z,99.90
2018-10-06T12:13:25.714Z,99.90
2018-10-06T12:15:53.422Z,99.90
2018-10-06T12:18:21.094Z,99.90
2018-10-06T12:20:48.798Z,99.90
2018-10-06T12:23:16.468Z,99.90
2018-10-06T12:25:44.182Z,99.90
2018-10-06T12:28:11.969Z,99.90
2018-10-06T12:30:39.684Z,99.90
2018-10-06T12:33:07.355Z,99.90
2018-10-06T12:35:35.213Z,99.90
2018-10-06T12:38:02.868Z,99.90
2018-10-06T12:40:30.542Z,99.90
2018-10-06T12:42:58.275Z,99.90
2018-10-06T12:45:25.954Z,99.90
2018-10-06T12:47:53.654Z,99.90
2018-10-06T12:50:21.355Z,99.90
2018-10-06T12:52:49.031Z,99.90
2018-10-06T12:55:16.753Z,99.90
2018-10-06T12:57:44.452Z,99.90
2018-10-06T13:00:12.199Z,99.90
2018-10-06T13:02:39.890Z,99.90
2018-10-06T13:05:07.591Z,99.90
2018-10-06T13:07:35.314Z,99.90
2018-10-06T13:10:03.042Z,99.90
2018-10-06T13:12:30.723Z,99.90
2018-10-06T13:14:58.467Z,99.90
2018-10-06T13:17:26.227Z,99.90
2018-10-06T13:19:54.038Z,99.90
2018-10-06T13:22:21.750Z,99.90
2018-10-06T13:24:49.417Z,99.90
2018-10-06T13:27:17.148Z,99.90
2018-10-06T13:29:44.848Z,99.90
2018-10-06T13:32:12.571Z,99.90
2018-10-06T13:34:40.281Z,99.90
2018-10-06T13:37:08.019Z,99.90
2018-10-06T13:39:35.717Z,99.90
2018-10-06T13:42:03.659Z,99.90
2018-10-06T13:44:31.394Z,99.90
2018-10-06T13:46:59.142Z,99.90
2018-10-06T13:49:26.812Z,99.90
2018-10-06T13:51:54.528Z,99.90
2018-10-06T13:54:22.245Z,99.90
2018-10-06T13:56:50.384Z,99.90
2018-10-06T13:59:18.318Z,99.90
2018-10-06T14:01:46.032Z,99.90
2018-10-06T14:04:14.024Z,99.90
2018-10-06T14:06:41.767Z,99.90
2018-10-06T14:09:09.991Z,99.90
2018-10-06T14:11:37.926Z,99.90
2018-10-06T14:14:05.669Z,99.90
2018-10-06T14:16:33.379Z,99.90
2018-10-06T14:19:01.151Z,99.90
2018-10-06T14:21:28.851Z,99.90
2018-10-06T14:23:56.551Z,99.90
2018-10-06T14:26:24.222Z,99.90
2018-10-06T14:28:51.994Z,99.90
2018-10-06T14:31:19.676Z,99.90
2018-10-06T14:33:47.518Z,99.90
2018-10-06T14:36:15.199Z,99.90
2018-10-06T14:38:43.053Z,99.90
2018-10-06T14:41:10.784Z,99.90
2018-10-06T14:43:38.460Z,99.90
2018-10-06T14:46:06.682Z,99.90
2018-10-06T14:48:34.342Z,99.90
2018-10-06T14:51:02.202Z,99.90
2018-10-06T14:53:29.878Z,99.90
2018-10-06T14:55:57.582Z,99.90
2018-10-06T14:58:25.242Z,99.90
2018-10-06T15:00:52.971Z,99.90
2018-10-06T15:03:20.759Z,99.90
2018-10-06T15:05:48.539Z,99.90
2018-10-06T15:08:16.330Z,99.90
2018-10-06T15:10:44.042Z,99.90
2018-10-06T15:13:11.758Z,99.90
2018-10-06T15:15:39.440Z,99.90
2018-10-06T15:18:07.142Z,99.90
2018-10-06T15:20:34.810Z,99.90
2018-10-06T15:23:02.563Z,99.90
2018-10-06T15:25:30.287Z,99.90
2018-10-06T15:27:58.182Z,99.90
2018-10-06T15:30:25.888Z,99.90
2018-10-06T15:32:53.578Z,99.90
2018-10-06T15:35:21.494Z,99.90
2018-10-06T15:37:49.248Z,99.90
2018-10-06T15:40:16.915Z,99.90
2018-10-06T15:42:44.646Z,99.90
2018-10-06T15:45:12.435Z,99.90
2018-10-06T15:47:40.182Z,99.90
2018-10-06T15:50:07.909Z,99.90
2018-10-06T15:52:35.722Z,99.90
2018-10-06T15:55:03.471Z,99.90
2018-10-06T15:57:31.217Z,99.90
2018-10-06T15:59:58.953Z,99.90
2018-10-06T16:02:26.788Z,99.90
2018-10-06T16:04:54.500Z,99.90
2018-10-06T16:07:22.205Z,99.90
2018-10-06T16:09:49.990Z,99.90
2018-10-06T16:12:17.878Z,99.90
2018-10-06T16:14:45.493Z,99.90
2018-10-06T16:17:13.174Z,99.90
2018-10-06T16:19:40.942Z,99.90
2018-10-06T16:22:08.622Z,99.90
2018-10-06T16:24:36.324Z,99.90
2018-10-06T16:27:03.998Z,99.90
2018-10-06T16:29:31.670Z,99.90
2018-10-06T16:31:59.428Z,99.90
2018-10-06T16:34:27.150Z,99.90
2018-10-06T16:36:54.874Z,99.90
2018-10-06T16:39:22.629Z,99.90
2018-10-06T16:41:50.324Z,99.90
2018-10-06T16:44:18.046Z,99.90
2018-10-06T16:46:45.774Z,99.90
2018-10-06T16:49:13.467Z,99.90
2018-10-06T16:51:41.141Z,1.00
2018-10-06T16:54:08.865Z,99.90
2018-10-06T16:56:36.602Z,1.00
2018-10-06T16:59:04.322Z,99.90
2018-10-06T17:01:32.085Z,99.90
2018-10-06T17:03:59.742Z,99.90
2018-10-06T17:06:27.507Z,1.00
2018-10-06T17:08:55.240Z,99.90
2018-10-06T17:11:22.933Z,99.90
2018-10-06T17:13:50.609Z,99.90
2018-10-06T17:16:18.500Z,1.00
2018-10-06T17:18:46.166Z,1.00
2018-10-06T17:21:13.850Z,1.00
2018-10-06T17:23:41.594Z,99.90
2018-10-06T17:26:09.397Z,99.90
2018-10-06T17:28:37.086Z,99.90
2018-10-06T17:31:04.780Z,99.90
2018-10-06T17:33:32.465Z,99.90
2018-10-06T17:36:00.157Z,99.90
2018-10-06T17:38:27.887Z,99.90
2018-10-06T17:40:55.685Z,99.90
2018-10-06T17:43:24.401Z,1.00
2018-10-06T17:45:52.149Z,1.00
2018-10-06T17:48:20.084Z,99.90
2018-10-06T17:50:47.977Z,1.00
2018-10-06T17:53:15.711Z,1.00
2018-10-06T17:55:43.401Z,1.00
2018-10-06T17:58:11.093Z,1.00
2018-10-06T18:00:38.766Z,1.00
2018-10-06T18:03:06.477Z,1.00
2018-10-06T18:05:34.278Z,1.00
2018-10-06T18:08:02.044Z,1.00
2018-10-06T18:10:29.865Z,1.00
2018-10-06T18:12:57.667Z,1.00
2018-10-06T18:15:25.426Z,1.00
2018-10-06T18:17:53.178Z,1.00
2018-10-06T18:20:20.971Z,1.00
2018-10-06T18:22:48.818Z,1.00
2018-10-06T18:25:16.571Z,1.00
2018-10-06T18:27:44.464Z,1.00
2018-10-06T18:30:12.165Z,1.00
2018-10-06T18:32:39.873Z,1.00
2018-10-06T18:35:07.582Z,1.00
2018-10-06T18:37:35.368Z,1.00
2018-10-06T18:40:03.195Z,1.00
2018-10-06T18:42:30.856Z,1.00
2018-10-06T18:44:58.586Z,1.00
2018-10-06T18:47:26.387Z,1.00
2018-10-06T18:49:54.190Z,11.40
2018-10-06T18:52:22.163Z,9.80
2018-10-06T18:54:49.846Z,3.30
2018-10-06T18:57:17.531Z,7.00
2018-10-06T18:59:45.267Z,1.50
2018-10-06T19:02:12.972Z,22.20
2018-10-06T19:04:40.672Z,9.50
2018-10-06T19:07:08.373Z,25.90
2018-10-06T19:09:36.130Z,15.60
2018-10-06T19:12:03.855Z,39.30
2018-10-06T19:14:31.562Z,32.10
2018-10-06T19:16:59.260Z,52.10
2018-10-06T19:19:26.973Z,41.60
2018-10-06T19:21:54.793Z,55.20
2018-10-06T19:24:22.507Z,47.30
2018-10-06T19:26:51.057Z,60.60
2018-10-06T19:29:18.902Z,46.50
2018-10-06T19:31:46.598Z,50.10
2018-10-06T19:34:14.313Z,49.20
2018-10-06T19:36:42.054Z,50.90
2018-10-06T19:39:10.017Z,50.30
2018-10-06T19:41:38.271Z,69.20
2018-10-06T19:44:06.075Z,75.80
2018-10-06T19:46:33.790Z,80.50
2018-10-06T19:49:01.487Z,74.80
2018-10-06T19:51:29.982Z,90.20
2018-10-06T19:53:57.692Z,75.50
2018-10-06T19:56:25.414Z,72.90
2018-10-06T19:58:53.105Z,70.80
2018-10-06T20:01:20.815Z,75.00
2018-10-06T20:03:48.545Z,81.90
2018-10-06T20:06:16.401Z,79.70
2018-10-06T20:08:44.099Z,79.40
2018-10-06T20:11:11.777Z,84.50
2018-10-06T20:13:39.482Z,88.40
2018-10-06T20:16:07.317Z,84.70
2018-10-06T20:18:35.023Z,87.50
2018-10-06T20:21:02.723Z,89.50
2018-10-06T20:23:30.421Z,89.10
2018-10-06T20:25:58.273Z,84.00
2018-10-06T20:28:25.973Z,91.40
2018-10-06T20:30:53.668Z,97.80
2018-10-06T20:33:21.457Z,98.40
2018-10-06T20:35:49.184Z,96.80
2018-10-06T20:38:16.914Z,99.30
2018-10-06T20:40:44.634Z,99.40
2018-10-06T20:43:12.361Z,99.90
2018-10-06T20:45:40.089Z,99.90
2018-10-06T20:48:07.926Z,99.90
2018-10-06T20:50:35.708Z,99.90
2018-10-06T20:53:03.388Z,99.90
2018-10-06T20:55:31.098Z,99.90
2018-10-06T20:57:58.790Z,99.90
2018-10-06T21:00:26.518Z,99.90
2018-10-06T21:02:54.215Z,99.90
2018-10-06T21:05:22.019Z,99.90
2018-10-06T21:07:49.965Z,99.90
2018-10-06T21:10:17.683Z,99.90
2018-10-06T21:12:45.374Z,99.90
2018-10-06T21:15:13.064Z,99.90
2018-10-06T21:17:40.806Z,99.90
2018-10-06T21:20:08.530Z,95.40
2018-10-06T21:22:36.252Z,76.40
2018-10-06T21:25:03.985Z,57.60
2018-10-06T21:27:31.842Z,28.70
2018-10-06T21:29:59.604Z,35.50
2018-10-06T21:32:27.348Z,35.50
2018-10-06T21:34:55.063Z,8.00
2018-10-06T21:37:22.830Z,1.00
2018-10-06T21:39:50.505Z,1.00
2018-10-06T21:42:18.266Z,1.00
2018-10-06T21:44:45.983Z,1.00
2018-10-06T21:47:13.679Z,1.00
2018-10-06T21:49:41.362Z,1.00
2018-10-06T21:52:10.129Z,1.00
2018-10-06T21:54:37.850Z,1.00
2018-10-06T21:57:05.611Z,99.90
2018-10-06T21:59:33.339Z,99.90
2018-10-06T22:02:01.056Z,99.90
2018-10-06T22:04:28.757Z,99.90
2018-10-06T22:06:56.461Z,99.90
2018-10-06T22:09:24.212Z,1.00
2018-10-06T22:11:51.910Z,1.00
2018-10-06T22:14:19.642Z,1.00
2018-10-06T22:16:47.370Z,1.00
2018-10-06T22:19:15.047Z,1.00
2018-10-06T22:21:42.750Z,1.00
2018-10-06T22:24:10.475Z,1.00
2018-10-06T22:26:38.190Z,1.00
2018-10-06T22:29:05.955Z,1.00
2018-10-06T22:31:33.692Z,1.00
2018-10-06T22:34:01.394Z,1.00
2018-10-06T22:36:29.158Z,1.00
2018-10-06T22:38:56.906Z,1.00
2018-10-06T22:41:24.569Z,1.00
2018-10-06T22:43:52.626Z,21.50
2018-10-06T22:46:20.338Z,24.90
2018-10-06T22:48:48.072Z,18.20
2018-10-06T22:51:15.823Z,13.80
2018-10-06T22:53:43.481Z,8.20
2018-10-06T22:56:11.165Z,8.90
2018-10-06T22:58:38.867Z,1.00
2018-10-06T23:01:06.578Z,1.00
2018-10-06T23:03:34.274Z,1.00
2018-10-06T23:06:01.984Z,1.00
2018-10-06T23:08:29.697Z,1.00
2018-10-06T23:10:57.456Z,1.00
2018-10-06T23:13:25.133Z,1.00
2018-10-06T23:15:52.851Z,1.00
2018-10-06T23:18:20.558Z,1.00
2018-10-06T23:20:48.224Z,1.00
2018-10-06T23:23:15.944Z,3.50
2018-10-06T23:25:43.615Z,4.90
2018-10-06T23:28:11.325Z,15.30
2018-10-06T23:30:38.993Z,17.70
2018-10-06T23:33:06.709Z,20.50
2018-10-06T23:35:34.387Z,19.50
2018-10-06T23:38:02.091Z,30.10
2018-10-06T23:40:29.819Z,17.40
2018-10-06T23:42:57.540Z,30.70
2018-10-06T23:45:25.242Z,53.10
2018-10-06T23:47:52.934Z,55.20
2018-10-06T23:50:20.648Z,58.70
2018-10-06T23:52:48.312Z,52.50
2018-10-06T23:55:16.014Z,56.20
2018-10-06T23:57:43.722Z,40.30
